Antimony, UT

6:26 PM MDT on August 28, 2016 (GMT -0600)
Bryce Canyon | | Change Station

Elev 7585 ft 37.71 °N, 112.15 °W | Updated 33 minutes ago

Clear
Clear
68 °F
Feels Like 68 °F
N
4
Wind Variable Wind from SW

Today
High -- | Low -- °F
--% Chance of Precip.
Yesterday
High -- | Low -- °F
Precip. -- in
Pressure 30.07 in
Visibility 10.0 miles
Clouds Clear
Dew Point 44 °F
Humidity 42%
Rainfall 0.03 in
Snow Depth Not available.
6:55 AM 8:02 PM
Waning Crescent, 12% visible
METAR KBCE 282353Z AUTO 23003KT 10SM CLR 20/07 A3036 RMK AO2 LTG DSNT SW RAE2257 SLP182 P0000 60003 T02000067 10211 20156 56007
Pressure 30.07 in
Visibility 10.0 miles
Clouds Clear
Dew Point 44 °F
Humidity 42%
Rainfall 0.03 in
Snow Depth Not available.
6:55 AM 8:02 PM
Waning Crescent, 12% visible
METAR KBCE 282353Z AUTO 23003KT 10SM CLR 20/07 A3036 RMK AO2 LTG DSNT SW RAE2257 SLP182 P0000 60003 T02000067 10211 20156 56007

10-Day Weather Forecast

Almanac

Astronomy

Aug. 28, 2016 Rise Set
Actual Time
Civil Twilight
Nautical Twilight
Astronomical Twilight
Moon
Length of Visible Light
Length of Day
Tomorrow will be .
, % of the Moon is Illuminated

Today's Extremes

State Highs State Lows

Community

WunderPhotos

Upload Photos

1,935,730 photos uploaded!

WunderBlog® & News

Nearby

Air Quality

  Air Quality AQ Index Pollutant
Not available.

Snow Depth

Station Depth Elevation

Earthquake Activity

City Distance Mag. Time & Date
Minimum magnitude displayed is 2.5.

Coastal Water Temperatures

Place Temperature

Stations

Nearby Weather Stations

Station Location Temp. Windchill Dew Point Humidity Wind Precip. Elev Updated Type
                   

Watches & Warnings

There are currently no watches in effect.